Flight Track Log - Related Links

Times and Time Zones

All times are in EDT time to prevent confusion due to time zone crossing. See the N55177 flight status page for this flight to view local times or setup timezone preferences in your user account.

Time Position Orientation Groundspeed Altitude Reporting Facility
EDT Latitude Longitude Course Direction KTS MPH feet Rate Location/Type
Sun 04:45:53 PM 27.6969 -80.4286 190° South 109 125 1,400  Level Miami Center
Sun 04:46:53 PM 27.7219 -80.4319 353° North 91 105 1,900 450 Climbing Miami Center
Sun 04:47:53 PM 27.7297 -80.4531 293° West 72 83 2,300 450 Climbing Miami Center
Sun 04:48:53 PM 27.7128 -80.4597 199° South 52 60 2,800 450 Climbing Miami Center
Sun 04:49:53 PM 27.6917 -80.4661 195° South 80 92 3,200 450 Climbing Miami Center
Sun 04:50:00 PM 27.5235 -80.4452 190° South  Level FlightAware Approximate
Sun 04:50:53 PM 27.6686 -80.4725 194° South 85 98 3,700  Level Miami Center
Sun 04:51:53 PM 27.6478 -80.4764 189° South 85 98 4,000 350 Climbing Miami Center
Sun 04:52:53 PM 27.6244 -80.4850 198° South 90 104 4,400 350 Climbing Miami Center
Sun 04:53:53 PM 27.6075 -80.4961 210° Southwest 90 104 4,700 350 Climbing Miami Center
Sun 04:54:53 PM 27.5844 -80.5003 189° South 90 104 5,100 400 Climbing Miami Center
Sun 04:55:53 PM 27.5594 -80.4969 173° South 84 97 5,500 350 Climbing Miami Center
Sun 04:56:53 PM 27.5342 -80.5056 197° South 84 97 5,800 300 Climbing Miami Center
Sun 04:57:53 PM 27.5131 -80.5167 205° Southwest 89 102 6,100 150 Climbing Miami Center
Sun 04:58:53 PM 27.4917 -80.5322 213° Southwest 100 115 6,100 -50 Level Miami Center
Sun 04:59:53 PM 27.4600 -80.5478 204° Southwest 111 128 6,000 -50 Descending Miami Center
Sun 05:00:53 PM 27.4222 -80.5606 197° South 124 143 6,000 -50 Level Miami Center
Sun 05:01:53 PM 27.3886 -80.5711 196° South 132 152 5,900 -50 Descending Miami Center
Sun 05:02:53 PM 27.3528 -80.5769 188° South 132 152 5,900 50 Level Miami Center
Sun 05:03:53 PM 27.3236 -80.5831 191° South 127 146 6,000 100 Climbing Miami Center
Sun 05:04:53 PM 27.2858 -80.5842 181° South 127 146 6,100  Climbing Miami Center
Sun 05:05:53 PM 27.2525 -80.5831 178° South 122 140 6,000 -100 Descending Miami Center
Sun 05:06:53 PM 27.2194 -80.5728 165° South 122 140 5,900 50 Descending Miami Center
Sun 05:07:53 PM 27.1903 -80.5672 170° South 122 140 6,100 100 Climbing Miami Center
Sun 05:08:53 PM 27.1569 -80.5592 168° South 122 140 6,100 -50 Level Miami Center
Sun 05:09:53 PM 27.1194 -80.5556 175° South 122 140 6,000 -169 Descending Miami Center
Sun 05:11:00 PM 27.0848 -80.5472 171° South  Level FlightAware Approximate
Sun 05:18:00 PM 26.8659 -80.5071 170° South  Level FlightAware Approximate
Sun 05:19:00 PM 26.8347 -80.5012 170° South  Level FlightAware Approximate
Sun 05:20:00 PM 26.8035 -80.4954 170° South  Level FlightAware Approximate
Sun 05:21:00 PM 26.7722 -80.4895 170° South  Level FlightAware Approximate
Sun 05:22:00 PM 26.7410 -80.4836 170° South  Level FlightAware Approximate
Sun 05:23:00 PM 26.7097 -80.4778 170° South  Level FlightAware Approximate
Sun 05:24:00 PM 26.6785 -80.4719 170° South  Level FlightAware Approximate
Sun 05:24:15 PM 26.6328 -80.4844 170° South 129 148 3,500  Level Miami Center
Sun 05:25:00 PM 26.6473 -80.4660 170° South  Level FlightAware Approximate
Sun 05:25:29 PM 26.5892 -80.4714 165° South 132 152 3,100  Level Miami Center
Sun 05:26:00 PM 26.6160 -80.4602 170° South  Level FlightAware Approximate
Sun 05:26:30 PM 26.5519 -80.4586 163° South 128 147 3,000  Level Miami Center
Sun 05:27:00 PM 26.5848 -80.4543 170° South  Level FlightAware Approximate
Sun 05:27:37 PM 26.5211 -80.4414 153° Southeast 114 131 3,000  Level Miami Center
Sun 05:28:00 PM 26.5535 -80.4485 170° South  Level FlightAware Approximate
Sun 05:28:32 PM 26.4942 -80.4267 154° Southeast 117 135 2,900  Level Miami Center
Sun 05:29:00 PM 26.5223 -80.4426 170° South  Level FlightAware Approximate
Sun 05:29:33 PM 26.4650 -80.4214 171° South 111 128 2,900  Level Miami Center
Sun 05:30:34 PM 26.4358 -80.4272 190° South 112 129 3,100 98 Climbing Miami Center
Sun 05:31:36 PM 26.4083 -80.4428 207° Southwest 115 132 3,100  Level Miami Center
Sun 05:32:37 PM 26.3825 -80.4675 221° Southwest 118 136 3,100 -98 Level Miami Center
Sun 05:33:38 PM 26.3528 -80.4850 208° Southwest 119 137 2,900 -49 Descending Miami Center
Sun 05:34:39 PM 26.3231 -80.5028 208° Southwest 122 140 3,000 -197 Climbing Miami Center
Sun 05:35:40 PM 26.2936 -80.5181 205° Southwest 115 132 2,500 -469 Descending Miami Center
Sun 05:36:47 PM 26.2597 -80.5378 208° Southwest 121 139 2,000 -234 Descending Miami Center
Sun 05:37:48 PM 26.2283 -80.5369 179° South 116 133 2,000  Level Miami Center
Sun 05:38:55 PM 26.1928 -80.5358 178° South 111 128 2,000 -47 Level Miami Center
Sun 05:39:57 PM 26.1617 -80.5325 175° South 113 130 1,900  Descending Miami Center
Sun 05:40:58 PM 26.1325 -80.5292 174° South 103 119 2,000 52 Climbing Miami Center
Sun 05:41:53 PM 26.1053 -80.5261 174° South 107 123 2,000 -52 Level Miami Center
Sun 05:42:54 PM 26.0761 -80.5253 179° South 108 124 1,900  Descending Miami Center
Sun 05:43:55 PM 26.0450 -80.5172 167° South 104 120 2,000 47 Climbing Miami Center
Sun 05:45:03 PM 26.0139 -80.5117 171° South 106 122 2,000 47 Level Miami Center
Sun 05:46:04 PM 25.9828 -80.5017 164° South 105 121 2,100  Climbing Miami Center
Sun 05:46:59 PM 25.9600 -80.4961 168° South 109 125 2,000 -155 Descending Miami Center
Sun 05:48:00 PM 25.9289 -80.4861 164° South 110 127 1,800 -197 Descending Miami Center
Sun 05:49:01 PM 25.9147 -80.4603 121° Southeast 96 110 1,600 -98 Descending Miami Center
Sun 05:50:02 PM 25.9094 -80.4278 100° East 102 117 1,600  Level Miami Center
Sun 05:51:04 PM 25.9081 -80.3978 93° East 105 121 1,600 -195 Level Miami Center
Sun 05:52:05 PM 25.9047 -80.3653 96° East 94 108 1,200 -590 Descending Miami Center
Sun 05:53:06 PM 25.9072 -80.3400 84° East 78 90 400 -344 Descending Miami Center
Sun 05:54:07 PM 25.9100 -80.3147 83° East 85 98 500 98 Climbing Miami Center
Sun 05:56:00 PM 25.9074 -80.2782 160° South  Level Estimated

Login

Don't have an account? Register now (free) for customized features, flight alerts, and more!